createdAt,value
2022-11-25T00:03:15.173Z,69.10
2022-11-25T00:08:15.037Z,69.16
2022-11-25T00:13:14.934Z,69.22
2022-11-25T00:18:14.899Z,69.30
2022-11-25T00:23:14.822Z,69.37
2022-11-25T00:28:14.799Z,69.45
2022-11-25T00:33:14.694Z,69.50
2022-11-25T00:38:14.638Z,69.52
2022-11-25T00:43:14.586Z,69.54
2022-11-25T00:48:14.514Z,69.59
2022-11-25T00:53:14.425Z,69.63
2022-11-25T00:58:14.375Z,69.70
2022-11-25T01:03:14.299Z,69.77
2022-11-25T01:08:39.320Z,69.49
2022-11-25T01:13:31.721Z,69.81
2022-11-25T01:18:31.645Z,70.03
2022-11-25T01:23:31.588Z,70.08
2022-11-25T01:28:31.492Z,70.06
2022-11-25T01:33:31.460Z,70.08
2022-11-25T01:38:31.387Z,70.12
2022-11-25T01:43:31.351Z,70.15
2022-11-25T01:48:31.247Z,70.16
2022-11-25T01:53:31.201Z,70.12
2022-11-25T01:58:31.126Z,70.06
2022-11-25T02:03:31.064Z,70.09
2022-11-25T02:08:31.013Z,70.15
2022-11-25T02:13:30.942Z,70.19
2022-11-25T02:18:30.843Z,70.21
2022-11-25T02:23:30.805Z,70.21
2022-11-25T02:28:30.726Z,70.25
2022-11-25T02:33:30.685Z,70.29
2022-11-25T02:38:30.584Z,70.33
2022-11-25T02:43:30.551Z,70.36
2022-11-25T02:49:00.850Z,70.37
2022-11-25T02:53:31.396Z,70.39
2022-11-25T02:58:30.322Z,70.37
2022-11-25T03:03:30.272Z,70.37
2022-11-25T03:08:30.177Z,70.36
2022-11-25T03:13:30.146Z,70.37
2022-11-25T03:18:30.066Z,70.38
2022-11-25T03:23:30.024Z,70.38
2022-11-25T03:28:29.941Z,70.35
2022-11-25T03:33:29.866Z,70.38
2022-11-25T03:38:29.792Z,70.41
2022-11-25T03:43:29.745Z,70.44
2022-11-25T03:48:29.664Z,70.48
2022-11-25T03:53:29.616Z,70.50
2022-11-25T03:58:29.533Z,70.51
2022-11-25T04:03:29.481Z,70.53
2022-11-25T04:08:29.385Z,70.58
2022-11-25T04:13:29.345Z,70.62
2022-11-25T04:18:29.287Z,70.65
2022-11-25T04:23:29.208Z,70.65
2022-11-25T04:28:29.168Z,70.68
2022-11-25T04:33:29.085Z,70.69
2022-11-25T04:38:29.021Z,70.70
2022-11-25T04:43:29.006Z,70.75
2022-11-25T04:48:28.909Z,70.75
2022-11-25T04:53:28.826Z,70.76
2022-11-25T04:58:28.753Z,70.81
2022-11-25T05:03:28.709Z,70.85
2022-11-25T05:08:28.629Z,70.91
2022-11-25T05:13:28.551Z,70.99
2022-11-25T05:18:39.452Z,70.70
2022-11-25T05:23:31.860Z,70.99
2022-11-25T05:28:31.825Z,71.13
2022-11-25T05:33:31.724Z,71.14
2022-11-25T05:38:31.705Z,71.13
2022-11-25T05:43:31.585Z,71.13
2022-11-25T05:48:31.542Z,71.14
2022-11-25T05:53:31.474Z,71.15
2022-11-25T05:58:31.420Z,71.17
2022-11-25T06:03:31.364Z,71.15
2022-11-25T06:08:31.277Z,71.14
2022-11-25T06:13:31.174Z,71.14
2022-11-25T06:18:31.150Z,71.17
2022-11-25T06:23:31.065Z,71.18
2022-11-25T06:28:31.018Z,71.16
2022-11-25T06:33:30.946Z,71.15
2022-11-25T06:38:30.909Z,71.14
2022-11-25T06:43:30.800Z,71.15
2022-11-25T06:48:30.753Z,71.18
2022-11-25T06:53:30.703Z,71.20
2022-11-25T06:58:35.732Z,71.22
2022-11-25T07:03:31.553Z,71.25
2022-11-25T07:08:33.958Z,71.28
2022-11-25T07:13:30.405Z,71.32
2022-11-25T07:18:30.358Z,71.34
2022-11-25T07:23:30.263Z,71.36
2022-11-25T07:28:30.255Z,71.38
2022-11-25T07:33:30.218Z,71.42
2022-11-25T07:38:30.093Z,71.44
2022-11-25T07:43:30.035Z,71.49
2022-11-25T07:48:29.978Z,71.52
2022-11-25T07:53:29.877Z,71.52
2022-11-25T07:58:29.838Z,71.49
2022-11-25T08:03:29.750Z,71.47
2022-11-25T08:08:29.691Z,71.43
2022-11-25T08:13:29.625Z,71.41
2022-11-25T08:18:29.569Z,71.22
2022-11-25T08:23:29.491Z,71.21
2022-11-25T08:28:29.434Z,71.33
2022-11-25T08:33:29.348Z,71.16
2022-11-25T08:38:29.301Z,70.88
2022-11-25T08:43:29.675Z,70.12
2022-11-25T08:48:29.166Z,69.88
2022-11-25T08:53:29.154Z,69.50
2022-11-25T08:58:29.056Z,69.78
2022-11-25T09:03:29.009Z,70.25
2022-11-25T09:08:28.911Z,70.51
2022-11-25T09:13:28.805Z,70.00
2022-11-25T09:18:28.775Z,69.60
2022-11-25T09:23:28.705Z,69.14
2022-11-25T09:28:28.641Z,69.06
2022-11-25T09:33:28.583Z,63.47
2022-11-25T09:38:28.507Z,61.91
2022-11-25T09:43:28.484Z,57.38
2022-11-25T09:48:28.344Z,56.38
2022-11-25T09:53:28.337Z,55.47
2022-11-25T09:58:28.243Z,54.18
2022-11-25T10:03:28.238Z,52.48
2022-11-25T10:08:28.116Z,50.47
2022-11-25T10:13:28.057Z,48.92
2022-11-25T10:18:27.969Z,46.88
2022-11-25T10:23:28.618Z,45.79
2022-11-25T10:28:27.822Z,45.68
2022-11-25T10:33:27.814Z,44.95
2022-11-25T10:38:27.697Z,45.41
2022-11-25T10:43:31.669Z,46.98
2022-11-25T10:48:28.595Z,45.45
2022-11-25T10:53:27.536Z,47.10
2022-11-25T10:58:27.450Z,44.17
2022-11-25T11:03:27.414Z,43.75
2022-11-25T11:08:27.328Z,43.12
2022-11-25T11:13:27.256Z,42.98
2022-11-25T11:18:27.186Z,42.27
2022-11-25T11:23:27.130Z,46.03
2022-11-25T11:28:27.043Z,46.44
2022-11-25T11:33:26.980Z,46.46
2022-11-25T11:38:26.908Z,50.26
2022-11-25T11:43:26.846Z,52.28
2022-11-25T11:48:26.773Z,52.88
2022-11-25T11:53:26.723Z,50.09
2022-11-25T11:58:26.624Z,52.93
2022-11-25T12:03:26.657Z,54.66
2022-11-25T12:08:26.524Z,56.27
2022-11-25T12:13:26.451Z,57.41
2022-11-25T12:18:26.359Z,57.66
2022-11-25T12:23:26.327Z,57.89
2022-11-25T12:28:26.254Z,58.16
2022-11-25T12:33:26.194Z,58.74
2022-11-25T12:38:26.111Z,58.80
2022-11-25T12:43:26.055Z,58.94
2022-11-25T12:48:25.952Z,58.55
2022-11-25T12:53:27.221Z,58.09
2022-11-25T12:58:25.890Z,57.33
2022-11-25T13:03:27.052Z,57.11
2022-11-25T13:08:25.790Z,57.61
2022-11-25T13:13:26.051Z,57.17
2022-11-25T13:18:25.594Z,56.91
2022-11-25T13:23:25.512Z,57.86
2022-11-25T13:28:25.436Z,58.30
2022-11-25T13:33:25.374Z,57.61
2022-11-25T13:38:25.294Z,56.69
2022-11-25T13:43:26.020Z,57.09
2022-11-25T13:48:25.169Z,57.71
2022-11-25T13:53:25.120Z,58.27
2022-11-25T13:58:25.045Z,58.53
2022-11-25T14:03:25.069Z,58.39
2022-11-25T14:08:24.905Z,58.54
2022-11-25T14:13:24.847Z,58.60
2022-11-25T14:18:44.746Z,58.76
2022-11-25T14:23:25.847Z,59.01
2022-11-25T14:28:24.664Z,59.38
2022-11-25T14:33:24.603Z,59.86
2022-11-25T14:38:24.518Z,60.11
2022-11-25T14:43:25.277Z,60.17
2022-11-25T14:48:24.365Z,60.10
2022-11-25T14:53:24.332Z,60.35
2022-11-25T14:58:24.242Z,60.64
2022-11-25T15:03:24.202Z,61.11
2022-11-25T15:08:24.118Z,61.42
2022-11-25T15:13:24.073Z,61.58
2022-11-25T15:18:23.991Z,61.76
2022-11-25T15:23:23.937Z,61.95
2022-11-25T15:28:23.844Z,62.08
2022-11-25T15:33:23.794Z,62.18
2022-11-25T15:38:23.711Z,62.31
2022-11-25T15:43:23.644Z,62.46
2022-11-25T15:48:23.574Z,62.62
2022-11-25T15:53:26.554Z,62.75
2022-11-25T15:58:24.458Z,62.87
2022-11-25T16:03:23.437Z,62.97
2022-11-25T16:08:23.322Z,63.07
2022-11-25T16:13:23.471Z,63.23
2022-11-25T16:18:39.933Z,63.37
2022-11-25T16:23:24.162Z,63.50
2022-11-25T16:28:23.065Z,63.60
2022-11-25T16:33:23.021Z,63.67
2022-11-25T16:38:22.939Z,63.80
2022-11-25T16:43:22.902Z,63.91
2022-11-25T16:48:22.798Z,64.00
2022-11-25T16:53:22.714Z,64.12
2022-11-25T16:58:22.655Z,64.25
2022-11-25T17:03:22.605Z,64.39
2022-11-25T17:08:22.667Z,64.53
2022-11-25T17:13:22.484Z,64.68
2022-11-25T17:18:22.394Z,64.83
2022-11-25T17:23:22.438Z,64.95
2022-11-25T17:28:22.274Z,65.08
2022-11-25T17:33:22.222Z,65.16
2022-11-25T17:38:22.129Z,65.23
2022-11-25T17:43:22.086Z,65.31
2022-11-25T17:48:22.022Z,65.39
2022-11-25T17:53:21.954Z,65.47
2022-11-25T17:58:21.858Z,65.60
2022-11-25T18:03:21.812Z,65.74
2022-11-25T18:08:21.742Z,65.84
2022-11-25T18:13:21.698Z,65.93
2022-11-25T18:18:21.620Z,66.02
2022-11-25T18:23:21.570Z,66.13
2022-11-25T18:28:21.480Z,66.27
2022-11-25T18:33:21.416Z,66.43
2022-11-25T18:38:21.694Z,66.49
2022-11-25T18:43:21.703Z,66.51
2022-11-25T18:48:21.215Z,66.53
2022-11-25T18:53:21.501Z,66.55
2022-11-25T18:58:21.115Z,66.61
2022-11-25T19:03:21.066Z,66.68
2022-11-25T19:08:20.974Z,66.74
2022-11-25T19:13:21.083Z,66.86
2022-11-25T19:18:20.832Z,66.95
2022-11-25T19:23:20.777Z,67.03
2022-11-25T19:28:20.684Z,67.10
2022-11-25T19:33:20.691Z,67.14
2022-11-25T19:38:20.545Z,67.19
2022-11-25T19:43:20.508Z,67.24
2022-11-25T19:48:20.485Z,67.34
2022-11-25T19:53:20.353Z,67.44
2022-11-25T19:58:20.279Z,67.53
2022-11-25T20:03:20.243Z,67.63
2022-11-25T20:08:20.151Z,67.66
2022-11-25T20:13:20.108Z,67.70
2022-11-25T20:18:20.020Z,67.75
2022-11-25T20:23:19.999Z,67.81
2022-11-25T20:28:19.901Z,67.89
2022-11-25T20:33:24.049Z,68.01
2022-11-25T20:38:19.753Z,68.09
2022-11-25T20:43:19.731Z,68.18
2022-11-25T20:48:19.622Z,68.26
2022-11-25T20:53:19.571Z,68.33
2022-11-25T20:58:19.512Z,68.38
2022-11-25T21:03:19.414Z,68.44
2022-11-25T21:08:19.373Z,68.48
2022-11-25T21:13:19.347Z,68.53
2022-11-25T21:18:19.240Z,68.58
2022-11-25T21:23:19.201Z,68.65
2022-11-25T21:28:19.115Z,68.68
2022-11-25T21:33:19.053Z,68.69
2022-11-25T21:38:18.964Z,68.65
2022-11-25T21:43:21.530Z,68.71
2022-11-25T21:48:18.845Z,68.78
2022-11-25T21:53:18.786Z,68.78
2022-11-25T21:58:18.737Z,68.82
2022-11-25T22:03:18.796Z,68.89
2022-11-25T22:08:18.559Z,68.91
2022-11-25T22:13:18.541Z,68.91
2022-11-25T22:18:18.458Z,68.95
2022-11-25T22:23:18.417Z,68.97
2022-11-25T22:28:18.315Z,69.01
2022-11-25T22:33:18.276Z,69.09
2022-11-25T22:38:18.189Z,69.17
2022-11-25T22:43:18.174Z,69.23
2022-11-25T22:48:18.056Z,69.32
2022-11-25T22:53:18.005Z,69.36
2022-11-25T22:58:17.918Z,69.34
2022-11-25T23:03:17.907Z,69.32
2022-11-25T23:08:17.783Z,69.30
2022-11-25T23:13:17.741Z,69.30
2022-11-25T23:18:17.700Z,69.37
2022-11-25T23:23:17.635Z,69.40
2022-11-25T23:28:17.535Z,69.43
2022-11-25T23:33:17.484Z,69.48
2022-11-25T23:38:17.394Z,69.54
2022-11-25T23:43:17.351Z,69.58
2022-11-25T23:48:17.282Z,69.63
2022-11-25T23:53:17.215Z,69.73
2022-11-25T23:58:17.116Z,69.79
